Lardero, Spain
Current Conditions -  °F | °C
As of 11:00 PM on Tuesday 27 Jan 2015 (Local Time) from LELO Reporting Station
Few Clouds Few Clouds  
Wind Chill: 41°   Ceiling: Unl
Heat Index: 46°   Visibility: 6mi
Dew Point: 37°   Wind: 10mph
Humidity: 71%   Direction: 290°WNW
Pressure: 30.39"   Gusts: NA
Location:  42.43°N, 2.46°W
Report Text: LELO 272200Z 29009KT 250V350 9999 FEW030 08/03 Q1029
Loading
Personal Weather Stations






























Interactive Weather Map New forecast layout! Learn more

10-Day Weather Forecast

Advertisements
Track Severe Weather on mobile